Terminal Aerodrome Forecast
Issued by NWS

Home | Current Version | Previous Version | Text Only | Print | Product List | Glossary On
Versions: 1 2 3 4 5 6 7 8 9 10 11 12 13 14 15 16 17
341
FTUS41 KAKQ 132339
TAFPHF
TAF
KPHF 132339Z 1400/1424 32012G22KT P6SM SKC
     FM140200 35010G18KT P6SM SKC
     FM140600 34008KT P6SM SKC
     FM141400 36010G15KT P6SM SCT250
     FM141700 36008KT P6SM BKN250=

USA.gov is the U.S. government's official web portal to all federal, state and local government web resources and services.